createdAt,value
2018-09-26T00:01:11.773Z,49.02
2018-09-26T00:03:47.195Z,48.98
2018-09-26T00:06:17.498Z,48.60
2018-09-26T00:08:46.458Z,48.85
2018-09-26T00:11:15.467Z,48.58
2018-09-26T00:13:44.437Z,49.05
2018-09-26T00:16:13.623Z,48.67
2018-09-26T00:18:42.528Z,48.93
2018-09-26T00:21:11.469Z,49.14
2018-09-26T00:23:40.413Z,49.33
2018-09-26T00:26:09.366Z,49.45
2018-09-26T00:28:38.955Z,49.72
2018-09-26T00:31:07.904Z,49.78
2018-09-26T00:33:37.198Z,49.74
2018-09-26T00:36:08.037Z,50.30
2018-09-26T00:38:36.979Z,50.23
2018-09-26T00:41:05.955Z,50.56
2018-09-26T00:43:35.945Z,50.50
2018-09-26T00:46:05.916Z,50.61
2018-09-26T00:48:34.847Z,50.11
2018-09-26T00:51:04.791Z,49.40
2018-09-26T00:53:33.911Z,50.01
2018-09-26T00:56:02.995Z,49.87
2018-09-26T00:58:31.975Z,49.76
2018-09-26T01:01:00.884Z,49.84
2018-09-26T01:03:31.312Z,50.37
2018-09-26T01:06:01.136Z,49.98
2018-09-26T01:08:30.080Z,49.93
2018-09-26T01:10:59.070Z,49.64
2018-09-26T01:13:28.035Z,50.01
2018-09-26T01:15:56.946Z,50.15
2018-09-26T01:18:25.872Z,50.06
2018-09-26T01:20:54.907Z,50.27
2018-09-26T01:23:23.795Z,50.73
2018-09-26T01:25:52.690Z,50.80
2018-09-26T01:28:21.615Z,50.50
2018-09-26T01:30:50.511Z,50.93
2018-09-26T01:33:19.439Z,50.97
2018-09-26T01:35:48.326Z,50.88
2018-09-26T01:38:17.266Z,51.20
2018-09-26T01:40:46.166Z,51.00
2018-09-26T01:43:15.151Z,51.18
2018-09-26T01:45:44.047Z,51.16
2018-09-26T01:48:12.978Z,50.79
2018-09-26T01:50:41.923Z,51.01
2018-09-26T01:53:10.816Z,51.19
2018-09-26T01:55:39.732Z,51.16
2018-09-26T01:58:08.634Z,51.23
2018-09-26T02:00:37.576Z,51.12
2018-09-26T02:03:06.510Z,51.09
2018-09-26T02:05:35.480Z,50.63
2018-09-26T02:08:04.505Z,51.18
2018-09-26T02:10:33.400Z,50.30
2018-09-26T02:13:02.319Z,50.77
2018-09-26T02:15:31.204Z,51.20
2018-09-26T02:18:00.100Z,50.99
2018-09-26T02:20:29.071Z,51.44
2018-09-26T02:22:57.965Z,51.59
2018-09-26T02:25:26.900Z,51.41
2018-09-26T02:27:55.886Z,51.68
2018-09-26T02:30:24.780Z,51.21
2018-09-26T02:32:53.693Z,51.36
2018-09-26T02:35:22.626Z,51.46
2018-09-26T02:37:51.540Z,51.82
2018-09-26T02:40:20.509Z,51.48
2018-09-26T02:42:50.047Z,51.49
2018-09-26T02:45:19.045Z,51.26
2018-09-26T02:47:47.980Z,51.35
2018-09-26T02:50:16.883Z,51.14
2018-09-26T02:52:45.796Z,51.25
2018-09-26T02:55:14.744Z,51.44
2018-09-26T02:57:43.665Z,51.47
2018-09-26T03:00:13.010Z,51.57
2018-09-26T03:02:41.998Z,51.60
2018-09-26T03:05:10.908Z,51.52
2018-09-26T03:07:39.853Z,51.81
2018-09-26T03:10:08.879Z,52.42
2018-09-26T03:12:37.788Z,52.65
2018-09-26T03:15:06.766Z,52.18
2018-09-26T03:17:35.775Z,52.08
2018-09-26T03:20:05.331Z,52.84
2018-09-26T03:22:34.235Z,53.33
2018-09-26T03:25:03.219Z,50.76
2018-09-26T03:27:32.203Z,50.32
2018-09-26T03:30:01.119Z,50.64
2018-09-26T03:32:30.063Z,50.73
2018-09-26T03:35:01.915Z,51.24
2018-09-26T03:37:30.866Z,51.15
2018-09-26T03:39:59.735Z,51.83
2018-09-26T03:42:28.653Z,52.21
2018-09-26T03:44:57.571Z,52.13
2018-09-26T03:47:26.529Z,52.22
2018-09-26T03:49:55.423Z,52.43
2018-09-26T03:52:24.344Z,52.68
2018-09-26T03:54:53.273Z,52.44
2018-09-26T03:57:22.174Z,52.48
2018-09-26T03:59:51.063Z,52.37
2018-09-26T04:02:20.011Z,52.57
2018-09-26T04:04:48.942Z,52.25
2018-09-26T04:07:17.854Z,52.19
2018-09-26T04:09:46.862Z,52.70
2018-09-26T04:12:15.751Z,52.51
2018-09-26T04:14:44.626Z,53.21
2018-09-26T04:17:13.518Z,53.46
2018-09-26T04:19:42.412Z,53.27
2018-09-26T04:22:11.311Z,52.94
2018-09-26T04:24:40.203Z,53.20
2018-09-26T04:27:09.209Z,53.14
2018-09-26T04:29:38.088Z,53.49
2018-09-26T04:32:07.091Z,53.10
2018-09-26T04:34:35.987Z,53.65
2018-09-26T04:37:04.886Z,53.67
2018-09-26T04:39:33.807Z,53.79
2018-09-26T04:42:02.723Z,53.74
2018-09-26T04:44:31.650Z,53.58
2018-09-26T04:47:00.682Z,53.46
2018-09-26T04:49:29.592Z,53.76
2018-09-26T04:51:58.487Z,54.70
2018-09-26T04:54:27.447Z,54.22
2018-09-26T04:56:56.336Z,53.89
2018-09-26T04:59:25.233Z,53.33
2018-09-26T05:01:54.175Z,53.42
2018-09-26T05:04:23.087Z,52.91
2018-09-26T05:06:52.055Z,52.93
2018-09-26T05:09:20.977Z,52.14
2018-09-26T05:11:49.934Z,52.37
2018-09-26T05:14:18.845Z,51.86
2018-09-26T05:16:47.816Z,51.88
2018-09-26T05:19:16.747Z,51.64
2018-09-26T05:21:45.669Z,51.91
2018-09-26T05:24:14.589Z,51.52
2018-09-26T05:26:43.504Z,51.32
2018-09-26T05:29:12.402Z,50.57
2018-09-26T05:31:41.312Z,50.30
2018-09-26T05:34:10.219Z,50.37
2018-09-26T05:36:39.116Z,49.75
2018-09-26T05:39:10.399Z,49.33
2018-09-26T05:41:39.396Z,49.66
2018-09-26T05:44:08.442Z,49.86
2018-09-26T05:46:37.366Z,49.60
2018-09-26T05:49:06.268Z,49.62
2018-09-26T05:51:35.242Z,49.33
2018-09-26T05:54:04.171Z,49.07
2018-09-26T05:56:33.159Z,49.25
2018-09-26T05:59:02.107Z,49.18
2018-09-26T06:01:31.012Z,48.20
2018-09-26T06:04:00.262Z,48.04
2018-09-26T06:06:29.171Z,48.13
2018-09-26T06:08:58.095Z,47.50
2018-09-26T06:11:27.007Z,46.75
2018-09-26T06:13:55.983Z,46.46
2018-09-26T06:16:24.899Z,46.75
2018-09-26T06:18:53.861Z,46.92
2018-09-26T06:21:22.782Z,46.93
2018-09-26T06:23:51.768Z,47.27
2018-09-26T06:26:21.711Z,46.91
2018-09-26T06:28:50.684Z,46.93
2018-09-26T06:31:19.615Z,46.71
2018-09-26T06:33:48.532Z,47.11
2018-09-26T06:36:17.522Z,46.83
2018-09-26T06:38:46.405Z,46.79
2018-09-26T06:41:15.355Z,46.18
2018-09-26T06:43:44.272Z,46.44
2018-09-26T06:46:13.215Z,46.38
2018-09-26T06:48:42.216Z,46.17
2018-09-26T06:51:11.195Z,46.01
2018-09-26T06:53:40.143Z,46.14
2018-09-26T06:56:09.079Z,46.24
2018-09-26T06:58:37.984Z,46.35
2018-09-26T07:01:07.132Z,46.54
2018-09-26T07:03:36.095Z,46.16
2018-09-26T07:06:05.070Z,46.29
2018-09-26T07:08:34.025Z,46.58
2018-09-26T07:11:02.971Z,47.18
2018-09-26T07:13:31.913Z,46.48
2018-09-26T07:16:00.864Z,45.54
2018-09-26T07:18:29.786Z,46.13
2018-09-26T07:20:58.802Z,45.35
2018-09-26T07:23:27.708Z,45.71
2018-09-26T07:25:56.675Z,45.24
2018-09-26T07:28:25.588Z,44.85
2018-09-26T07:30:54.553Z,44.57
2018-09-26T07:33:23.506Z,44.32
2018-09-26T07:35:52.437Z,44.21
2018-09-26T07:38:21.372Z,44.65
2018-09-26T07:40:50.591Z,44.51
2018-09-26T07:43:19.639Z,44.62
2018-09-26T07:45:48.597Z,43.86
2018-09-26T07:48:17.764Z,43.99
2018-09-26T07:50:46.707Z,43.86
2018-09-26T07:53:15.622Z,43.42
2018-09-26T07:55:44.559Z,43.59
2018-09-26T07:58:13.583Z,43.32
2018-09-26T08:00:42.507Z,43.72
2018-09-26T08:03:11.427Z,43.19
2018-09-26T08:05:40.374Z,42.76
2018-09-26T08:08:09.317Z,42.42
2018-09-26T08:10:38.239Z,41.89
2018-09-26T08:13:11.819Z,41.67
2018-09-26T08:15:40.805Z,42.49
2018-09-26T08:18:09.745Z,41.78
2018-09-26T08:20:38.700Z,41.49
2018-09-26T08:23:07.882Z,41.49
2018-09-26T08:25:36.786Z,41.20
2018-09-26T08:28:05.695Z,41.51
2018-09-26T08:30:34.692Z,40.85
2018-09-26T08:33:03.635Z,40.16
2018-09-26T08:35:32.519Z,40.02
2018-09-26T08:38:01.545Z,39.70
2018-09-26T08:40:30.508Z,40.43
2018-09-26T08:43:00.243Z,39.49
2018-09-26T08:45:29.199Z,39.34
2018-09-26T08:47:58.131Z,38.74
2018-09-26T08:50:27.076Z,38.86
2018-09-26T08:52:56.023Z,39.90
2018-09-26T08:55:25.057Z,38.52
2018-09-26T08:57:54.004Z,38.96
2018-09-26T09:00:28.054Z,38.12
2018-09-26T09:02:57.003Z,38.56
2018-09-26T09:05:25.954Z,37.61
2018-09-26T09:07:54.861Z,37.59
2018-09-26T09:10:23.814Z,38.02
2018-09-26T09:12:52.715Z,37.94
2018-09-26T09:15:21.635Z,38.08
2018-09-26T09:17:50.784Z,37.40
2018-09-26T09:20:20.677Z,36.80
2018-09-26T09:22:49.603Z,37.17
2018-09-26T09:25:18.489Z,36.88
2018-09-26T09:27:47.400Z,36.47
2018-09-26T09:30:16.319Z,36.81
2018-09-26T09:32:45.230Z,36.30
2018-09-26T09:35:14.172Z,37.07
2018-09-26T09:37:44.169Z,37.32
2018-09-26T09:40:13.122Z,37.69
2018-09-26T09:42:42.022Z,37.30
2018-09-26T09:45:11.071Z,37.36
2018-09-26T09:47:40.082Z,35.94
2018-09-26T09:50:09.001Z,35.69
2018-09-26T09:52:37.954Z,36.53
2018-09-26T09:55:06.915Z,35.50
2018-09-26T09:57:35.811Z,35.79
2018-09-26T10:00:04.782Z,35.98
2018-09-26T10:02:33.797Z,36.36
2018-09-26T10:05:02.690Z,36.17
2018-09-26T10:07:31.664Z,36.57
2018-09-26T10:10:00.567Z,35.15
2018-09-26T10:12:29.462Z,35.27
2018-09-26T10:14:58.480Z,35.78
2018-09-26T10:17:27.397Z,35.75
2018-09-26T10:19:56.320Z,35.28
2018-09-26T10:22:25.224Z,36.13
2018-09-26T10:24:54.156Z,35.70
2018-09-26T10:27:23.090Z,34.79
2018-09-26T10:29:52.056Z,34.50
2018-09-26T10:32:21.052Z,34.68
2018-09-26T10:34:49.967Z,35.19
2018-09-26T10:37:18.874Z,34.57
2018-09-26T10:39:47.831Z,33.55
2018-09-26T10:42:16.758Z,33.66
2018-09-26T10:44:45.651Z,34.33
2018-09-26T10:47:14.579Z,33.94
2018-09-26T10:49:43.511Z,32.98
2018-09-26T10:52:12.492Z,33.31
2018-09-26T10:54:41.424Z,33.81
2018-09-26T10:57:10.370Z,33.64
2018-09-26T10:59:39.302Z,34.07
2018-09-26T11:02:08.278Z,32.87
2018-09-26T11:04:37.147Z,34.05
2018-09-26T11:07:06.060Z,33.97
2018-09-26T11:09:34.959Z,34.08
2018-09-26T11:12:03.859Z,33.76
2018-09-26T11:14:32.841Z,33.02
2018-09-26T11:17:01.747Z,33.37
2018-09-26T11:19:32.903Z,33.17
2018-09-26T11:22:01.823Z,31.77
2018-09-26T11:24:30.813Z,31.99
2018-09-26T11:26:59.729Z,32.22
2018-09-26T11:29:28.643Z,32.29
2018-09-26T11:31:57.567Z,32.22
2018-09-26T11:34:27.814Z,32.21
2018-09-26T11:36:57.168Z,33.03
2018-09-26T11:39:26.084Z,32.90
2018-09-26T11:41:54.996Z,34.50
2018-09-26T11:44:24.013Z,34.16
2018-09-26T11:46:52.899Z,34.69
2018-09-26T11:49:21.879Z,34.27
2018-09-26T11:51:50.799Z,34.56
2018-09-26T11:54:19.743Z,34.59
2018-09-26T11:56:48.635Z,35.55
2018-09-26T11:59:17.624Z,35.26
2018-09-26T12:01:46.635Z,35.74
2018-09-26T12:04:15.560Z,34.15
2018-09-26T12:06:44.467Z,32.82
2018-09-26T12:09:13.377Z,32.67
2018-09-26T12:11:42.287Z,33.28
2018-09-26T12:14:11.211Z,33.10
2018-09-26T12:16:41.154Z,33.73
2018-09-26T12:19:10.076Z,33.75
2018-09-26T12:21:39.068Z,33.75
2018-09-26T12:24:08.035Z,33.89
2018-09-26T12:26:36.947Z,33.88
2018-09-26T12:29:05.947Z,33.12
2018-09-26T12:31:34.896Z,32.88
2018-09-26T12:34:03.839Z,32.21
2018-09-26T12:36:32.770Z,32.09
2018-09-26T12:39:01.784Z,32.29
2018-09-26T12:41:30.721Z,33.11
2018-09-26T12:43:59.670Z,33.15
2018-09-26T12:46:28.585Z,33.86
2018-09-26T12:48:57.507Z,34.02
2018-09-26T12:51:26.461Z,33.32
2018-09-26T12:53:55.491Z,33.97
2018-09-26T12:56:24.403Z,33.86
2018-09-26T12:58:53.326Z,33.20
2018-09-26T13:01:22.267Z,32.88
2018-09-26T13:03:51.193Z,33.35
2018-09-26T13:06:20.257Z,32.67
2018-09-26T13:08:49.196Z,33.14
2018-09-26T13:11:18.140Z,33.56
2018-09-26T13:13:47.082Z,34.10
2018-09-26T13:16:16.029Z,33.46
2018-09-26T13:18:44.952Z,33.74
2018-09-26T13:21:13.846Z,33.42
2018-09-26T13:23:46.495Z,33.07
2018-09-26T13:26:16.149Z,32.16
2018-09-26T13:28:45.073Z,32.09
2018-09-26T13:31:14.018Z,31.59
2018-09-26T13:33:42.966Z,31.81
2018-09-26T13:36:11.893Z,32.15
2018-09-26T13:38:40.851Z,33.78
2018-09-26T13:41:09.806Z,32.67
2018-09-26T13:43:38.752Z,32.09
2018-09-26T13:46:07.727Z,32.73
2018-09-26T13:48:36.639Z,33.56
2018-09-26T13:51:05.551Z,33.63
2018-09-26T13:53:34.489Z,33.51
2018-09-26T13:56:03.452Z,33.76
2018-09-26T13:58:32.348Z,33.22
2018-09-26T14:01:01.247Z,33.14
2018-09-26T14:03:30.253Z,32.54
2018-09-26T14:05:59.195Z,32.99
2018-09-26T14:08:28.131Z,34.14
2018-09-26T14:10:57.067Z,33.44
2018-09-26T14:13:26.087Z,33.35
2018-09-26T14:15:55.016Z,33.81
2018-09-26T14:18:23.937Z,34.34
2018-09-26T14:20:52.866Z,33.49
2018-09-26T14:23:21.811Z,33.69
2018-09-26T14:25:50.762Z,33.14
2018-09-26T14:28:19.668Z,33.73
2018-09-26T14:30:48.717Z,33.61
2018-09-26T14:33:17.595Z,33.97
2018-09-26T14:35:46.524Z,34.66
2018-09-26T14:38:15.469Z,34.56
2018-09-26T14:40:44.406Z,34.64
2018-09-26T14:43:13.371Z,34.91
2018-09-26T14:45:42.307Z,35.01
2018-09-26T14:48:11.287Z,34.01
2018-09-26T14:50:40.371Z,34.57
2018-09-26T14:53:09.323Z,32.97
2018-09-26T14:55:38.300Z,33.40
2018-09-26T14:58:07.295Z,32.82
2018-09-26T15:00:36.350Z,33.39
2018-09-26T15:03:06.529Z,32.96
2018-09-26T15:05:35.535Z,33.32
2018-09-26T15:08:04.476Z,33.79
2018-09-26T15:10:33.564Z,33.86
2018-09-26T15:13:02.559Z,33.78
2018-09-26T15:15:31.468Z,33.79
2018-09-26T15:18:00.426Z,34.23
2018-09-26T15:20:29.380Z,34.43
2018-09-26T15:22:58.323Z,34.48
2018-09-26T15:25:27.240Z,33.24
2018-09-26T15:27:56.314Z,33.09
2018-09-26T15:30:25.608Z,33.16
2018-09-26T15:32:54.764Z,33.13
2018-09-26T15:35:23.676Z,33.43
2018-09-26T15:37:52.598Z,33.16
2018-09-26T15:40:21.579Z,33.46
2018-09-26T15:42:50.484Z,33.76
2018-09-26T15:45:19.452Z,34.12
2018-09-26T15:47:48.426Z,34.60
2018-09-26T15:50:17.429Z,34.87
2018-09-26T15:52:46.444Z,35.11
2018-09-26T15:55:15.384Z,35.26
2018-09-26T15:57:44.328Z,35.02
2018-09-26T16:00:13.314Z,35.03
2018-09-26T16:02:42.239Z,35.34
2018-09-26T16:05:11.436Z,35.93
2018-09-26T16:07:40.332Z,35.71
2018-09-26T16:10:09.363Z,35.41
2018-09-26T16:12:38.387Z,36.20
2018-09-26T16:15:07.353Z,36.05
2018-09-26T16:17:36.324Z,35.92
2018-09-26T16:20:05.728Z,36.64
2018-09-26T16:22:34.655Z,36.72
2018-09-26T16:25:03.631Z,36.64
2018-09-26T16:27:32.548Z,37.08
2018-09-26T16:30:02.146Z,37.15
2018-09-26T16:32:31.071Z,37.32
2018-09-26T16:35:00.028Z,37.28
2018-09-26T16:37:28.964Z,37.76
2018-09-26T16:39:57.862Z,37.50
2018-09-26T16:42:27.760Z,37.74
2018-09-26T16:44:56.672Z,37.65
2018-09-26T16:47:25.604Z,37.91
2018-09-26T16:49:54.563Z,38.17
2018-09-26T16:52:23.581Z,37.53
2018-09-26T16:54:52.489Z,37.37
2018-09-26T16:57:21.449Z,37.47
2018-09-26T16:59:50.364Z,37.24
2018-09-26T17:02:19.384Z,37.18
2018-09-26T17:04:48.219Z,37.70
2018-09-26T17:07:17.496Z,37.31
2018-09-26T17:09:46.553Z,37.35
2018-09-26T17:12:15.580Z,37.40
2018-09-26T17:14:44.560Z,37.69
2018-09-26T17:17:13.943Z,37.33
2018-09-26T17:19:43.839Z,37.42
2018-09-26T17:22:12.832Z,36.93
2018-09-26T17:24:41.719Z,37.44
2018-09-26T17:27:10.805Z,37.63
2018-09-26T17:29:39.731Z,37.68
2018-09-26T17:32:08.656Z,37.70
2018-09-26T17:34:37.654Z,37.86
2018-09-26T17:37:06.699Z,37.75
2018-09-26T17:39:35.690Z,38.06
2018-09-26T17:42:04.674Z,37.45
2018-09-26T17:44:33.589Z,37.32
2018-09-26T17:47:02.548Z,37.84
2018-09-26T17:49:31.464Z,37.49
2018-09-26T17:52:00.463Z,37.76
2018-09-26T17:54:29.415Z,37.79
2018-09-26T17:56:58.442Z,37.97
2018-09-26T17:59:27.390Z,37.72
2018-09-26T18:01:56.365Z,38.07
2018-09-26T18:04:25.362Z,38.33
2018-09-26T18:06:55.698Z,38.53
2018-09-26T18:09:24.707Z,38.35
2018-09-26T18:11:53.636Z,38.72
2018-09-26T18:14:22.538Z,38.94
2018-09-26T18:16:51.488Z,39.11
2018-09-26T18:19:20.471Z,38.92
2018-09-26T18:21:49.445Z,38.82
2018-09-26T18:24:18.403Z,39.13
2018-09-26T18:26:47.403Z,38.57
2018-09-26T18:29:16.324Z,39.00
2018-09-26T18:31:45.254Z,39.56
2018-09-26T18:34:14.255Z,39.33
2018-09-26T18:36:43.187Z,39.24
2018-09-26T18:39:12.906Z,39.64
2018-09-26T18:41:41.839Z,39.82
2018-09-26T18:44:10.787Z,39.39
2018-09-26T18:46:40.829Z,39.47
2018-09-26T18:49:09.907Z,39.75
2018-09-26T18:51:38.937Z,40.24
2018-09-26T18:54:07.908Z,40.28
2018-09-26T18:56:36.875Z,40.54
2018-09-26T18:59:05.961Z,41.21
2018-09-26T19:01:34.764Z,41.21
2018-09-26T19:04:05.073Z,42.01
2018-09-26T19:06:34.066Z,42.21
2018-09-26T19:09:03.638Z,42.51
2018-09-26T19:11:32.691Z,43.18
2018-09-26T19:14:01.743Z,43.34
2018-09-26T19:16:30.757Z,43.29
2018-09-26T19:18:59.704Z,41.34
2018-09-26T19:21:28.687Z,41.58
2018-09-26T19:23:57.671Z,41.46
2018-09-26T19:26:26.593Z,42.50
2018-09-26T19:28:55.531Z,43.02
2018-09-26T19:31:24.454Z,43.43
2018-09-26T19:33:53.399Z,44.09
2018-09-26T19:36:22.338Z,43.96
2018-09-26T19:38:51.371Z,43.93
2018-09-26T19:41:20.308Z,44.50
2018-09-26T19:43:49.305Z,44.43
2018-09-26T19:46:18.223Z,44.95
2018-09-26T19:48:47.148Z,44.87
2018-09-26T19:51:17.036Z,45.54
2018-09-26T19:53:46.139Z,45.26
2018-09-26T19:56:15.159Z,45.68
2018-09-26T19:58:44.078Z,46.32
2018-09-26T20:01:13.101Z,46.07
2018-09-26T20:03:42.069Z,46.55
2018-09-26T20:06:11.008Z,46.94
2018-09-26T20:08:39.951Z,47.00
2018-09-26T20:11:09.201Z,46.78
2018-09-26T20:13:38.140Z,46.45
2018-09-26T20:16:07.151Z,46.48
2018-09-26T20:18:36.165Z,46.36
2018-09-26T20:21:05.091Z,46.35
2018-09-26T20:23:34.107Z,46.58
2018-09-26T20:26:03.227Z,46.91
2018-09-26T20:28:32.276Z,47.26
2018-09-26T20:31:02.177Z,47.21
2018-09-26T20:33:31.107Z,47.30
2018-09-26T20:36:00.849Z,47.52
2018-09-26T20:38:29.760Z,47.75
2018-09-26T20:40:58.863Z,47.98
2018-09-26T20:43:27.810Z,47.84
2018-09-26T20:45:56.739Z,47.59
2018-09-26T20:48:25.824Z,47.78
2018-09-26T20:50:54.822Z,47.74
2018-09-26T20:53:24.655Z,47.78
2018-09-26T20:55:53.559Z,48.13
2018-09-26T20:58:22.515Z,47.26
2018-09-26T21:00:51.436Z,47.59
2018-09-26T21:03:21.230Z,47.33
2018-09-26T21:05:50.915Z,47.62
2018-09-26T21:08:19.915Z,47.67
2018-09-26T21:10:49.627Z,47.68
2018-09-26T21:13:19.068Z,48.03
2018-09-26T21:15:48.002Z,47.80
2018-09-26T21:18:16.933Z,47.83
2018-09-26T21:20:47.012Z,47.82
2018-09-26T21:23:15.995Z,48.15
2018-09-26T21:25:45.007Z,47.91
2018-09-26T21:28:14.172Z,48.24
2018-09-26T21:30:43.208Z,47.74
2018-09-26T21:33:12.125Z,47.71
2018-09-26T21:35:41.073Z,47.03
2018-09-26T21:38:10.737Z,47.31
2018-09-26T21:40:39.704Z,47.79
2018-09-26T21:43:09.296Z,48.04
2018-09-26T21:45:38.288Z,48.42
2018-09-26T21:48:07.313Z,48.61
2018-09-26T21:50:36.216Z,48.95
2018-09-26T21:53:05.227Z,48.85
2018-09-26T21:55:34.131Z,49.25
2018-09-26T21:58:03.051Z,49.21
2018-09-26T22:00:32.080Z,49.38
2018-09-26T22:03:01.026Z,49.62
2018-09-26T22:05:29.939Z,49.92
2018-09-26T22:07:59.800Z,50.12
2018-09-26T22:10:28.798Z,50.24
2018-09-26T22:12:57.702Z,50.00
2018-09-26T22:15:26.598Z,49.91
2018-09-26T22:17:55.651Z,50.08
2018-09-26T22:20:24.562Z,50.50
2018-09-26T22:22:54.282Z,50.27
2018-09-26T22:25:24.506Z,50.15
2018-09-26T22:27:53.418Z,50.38
2018-09-26T22:30:23.359Z,50.59
2018-09-26T22:32:52.358Z,51.08
2018-09-26T22:35:21.273Z,50.61
2018-09-26T22:37:53.061Z,50.83
2018-09-26T22:40:22.157Z,50.72
2018-09-26T22:42:51.054Z,50.97
2018-09-26T22:45:19.974Z,50.90
2018-09-26T22:47:48.871Z,50.59
2018-09-26T22:50:17.789Z,51.50
2018-09-26T22:52:46.712Z,51.66
2018-09-26T22:55:15.679Z,52.01
2018-09-26T22:57:44.769Z,51.97
2018-09-26T23:00:13.697Z,52.06
2018-09-26T23:02:42.620Z,52.17
2018-09-26T23:05:11.587Z,52.17
2018-09-26T23:07:40.521Z,52.41
2018-09-26T23:10:09.456Z,52.52
2018-09-26T23:12:38.590Z,52.58
2018-09-26T23:15:07.564Z,52.85
2018-09-26T23:17:36.622Z,53.05
2018-09-26T23:20:05.603Z,52.94
2018-09-26T23:22:34.559Z,52.65
2018-09-26T23:25:03.470Z,52.17
2018-09-26T23:27:32.367Z,52.52
2018-09-26T23:30:01.300Z,51.89
2018-09-26T23:32:30.227Z,52.54
2018-09-26T23:34:59.171Z,52.64
2018-09-26T23:37:28.127Z,52.56
2018-09-26T23:39:57.019Z,52.27
2018-09-26T23:42:26.196Z,52.43
2018-09-26T23:44:55.120Z,52.89
2018-09-26T23:47:24.044Z,52.55
2018-09-26T23:49:53.086Z,52.38
2018-09-26T23:52:21.993Z,52.44
2018-09-26T23:54:50.891Z,52.32
2018-09-26T23:57:19.780Z,52.34
2018-09-26T23:59:48.694Z,52.73
